createdAt,value
2018-08-12T00:01:35.413Z,3.23
2018-08-12T00:03:46.322Z,2.70
2018-08-12T00:05:57.126Z,3.13
2018-08-12T00:08:08.091Z,3.30
2018-08-12T00:10:19.160Z,3.07
2018-08-12T00:12:30.282Z,3.57
2018-08-12T00:14:41.372Z,3.33
2018-08-12T00:16:53.448Z,3.63
2018-08-12T00:19:04.337Z,4.63
2018-08-12T00:21:15.540Z,5.63
2018-08-12T00:23:26.547Z,6.27
2018-08-12T00:25:37.460Z,4.73
2018-08-12T00:27:48.531Z,6.50
2018-08-12T00:30:00.220Z,5.50
2018-08-12T00:32:11.344Z,5.73
2018-08-12T00:34:22.429Z,5.70
2018-08-12T00:36:34.605Z,6.13
2018-08-12T00:38:45.443Z,5.43
2018-08-12T00:40:56.280Z,6.07
2018-08-12T00:43:07.062Z,5.43
2018-08-12T00:45:19.279Z,5.60
2018-08-12T00:47:30.323Z,5.83
2018-08-12T00:49:41.301Z,4.87
2018-08-12T00:51:53.322Z,6.00
2018-08-12T00:54:04.437Z,5.00
2018-08-12T00:56:15.383Z,5.40
2018-08-12T00:58:26.035Z,4.93
2018-08-12T01:00:37.436Z,5.60
2018-08-12T01:02:48.439Z,5.50
2018-08-12T01:05:00.045Z,5.70
2018-08-12T01:07:11.125Z,4.93
2018-08-12T01:09:21.641Z,4.20
2018-08-12T01:11:32.649Z,4.57
2018-08-12T01:13:43.676Z,4.73
2018-08-12T01:15:54.628Z,5.00
2018-08-12T01:18:05.712Z,4.53
2018-08-12T01:20:16.874Z,4.30
2018-08-12T01:30:34.255Z,4.47
2018-08-12T01:32:45.439Z,4.47
2018-08-12T01:34:56.602Z,4.90
2018-08-12T01:50:37.569Z,5.60
2018-08-12T01:52:48.806Z,4.37
2018-08-12T01:59:17.524Z,5.13
2018-08-12T02:01:28.725Z,4.80
2018-08-12T02:03:40.417Z,4.70
2018-08-12T02:05:51.441Z,4.40
2018-08-12T02:08:02.622Z,4.37
2018-08-12T02:10:14.156Z,4.93
2018-08-12T02:12:25.245Z,5.23
2018-08-12T02:14:36.358Z,4.87
2018-08-12T02:16:47.730Z,5.30
2018-08-12T02:18:58.997Z,4.43
2018-08-12T02:21:10.197Z,4.57
2018-08-12T02:23:21.405Z,5.00
2018-08-12T02:25:32.919Z,4.50
2018-08-12T02:27:44.186Z,4.57
2018-08-12T02:29:55.511Z,4.77
2018-08-12T02:32:08.423Z,4.63
2018-08-12T02:34:19.875Z,4.27
2018-08-12T02:36:31.096Z,3.97
2018-08-12T02:38:42.272Z,4.50
2018-08-12T02:40:53.484Z,4.10
2018-08-12T02:43:04.667Z,4.43
2018-08-12T02:45:17.248Z,3.67
2018-08-12T02:47:28.429Z,4.37
2018-08-12T02:49:39.863Z,5.23
2018-08-12T02:51:51.439Z,4.67
2018-08-12T02:54:02.617Z,3.83
2018-08-12T02:56:14.035Z,4.43
2018-08-12T02:58:26.502Z,4.53
2018-08-12T03:00:37.669Z,5.10
2018-08-12T03:02:49.224Z,4.13
2018-08-12T03:05:00.617Z,4.23
2018-08-12T03:07:12.025Z,5.37
2018-08-12T03:09:23.549Z,5.30
2018-08-12T03:11:34.837Z,4.43
2018-08-12T03:13:48.263Z,5.00
2018-08-12T03:15:59.570Z,5.53
2018-08-12T03:18:10.789Z,5.37
2018-08-12T03:20:22.092Z,5.73
2018-08-12T03:22:33.170Z,4.93
2018-08-12T03:24:44.461Z,5.07
2018-08-12T03:26:55.863Z,5.30
2018-08-12T03:29:07.329Z,5.03
2018-08-12T03:31:18.720Z,6.20
2018-08-12T03:33:30.097Z,5.10
2018-08-12T03:35:41.454Z,5.10
2018-08-12T03:37:52.652Z,5.50
2018-08-12T03:40:03.927Z,5.43
2018-08-12T03:42:15.176Z,5.37
2018-08-12T03:44:26.468Z,5.80
2018-08-12T03:46:37.806Z,5.70
2018-08-12T03:48:50.792Z,5.40
2018-08-12T03:51:02.062Z,4.77
2018-08-12T03:53:13.250Z,5.60
2018-08-12T03:55:25.802Z,4.60
2018-08-12T03:57:38.472Z,5.67
2018-08-12T03:59:49.517Z,5.43
2018-08-12T04:02:00.623Z,6.10
2018-08-12T04:04:12.091Z,5.23
2018-08-12T04:06:24.039Z,5.83
2018-08-12T04:08:35.077Z,5.60
2018-08-12T04:10:45.882Z,5.63
2018-08-12T04:12:58.716Z,5.20
2018-08-12T04:15:10.480Z,5.30
2018-08-12T04:17:21.731Z,5.10
2018-08-12T04:19:33.713Z,5.47
2018-08-12T04:21:45.001Z,5.53
2018-08-12T04:23:56.101Z,4.97
2018-08-12T04:26:07.433Z,4.47
2018-08-12T04:28:19.135Z,5.13
2018-08-12T04:30:30.572Z,5.40
2018-08-12T04:32:42.114Z,5.20
2018-08-12T04:34:53.326Z,5.43
2018-08-12T04:37:04.605Z,4.43
2018-08-12T04:39:16.896Z,5.20
2018-08-12T04:41:28.298Z,5.43
2018-08-12T04:43:39.798Z,5.80
2018-08-12T04:45:51.118Z,5.50
2018-08-12T04:48:02.691Z,4.97
2018-08-12T04:50:15.332Z,4.90
2018-08-12T04:52:26.789Z,4.83
2018-08-12T04:54:38.093Z,5.60
2018-08-12T04:56:49.627Z,5.40
2018-08-12T04:59:00.809Z,4.47
2018-08-12T05:01:11.955Z,4.70
2018-08-12T05:03:23.302Z,4.70
2018-08-12T05:05:34.370Z,4.07
2018-08-12T05:07:45.695Z,4.90
2018-08-12T05:09:57.022Z,4.67
2018-08-12T05:12:08.629Z,4.33
2018-08-12T05:14:19.758Z,4.80
2018-08-12T05:16:31.045Z,5.20
2018-08-12T05:18:42.226Z,5.03
2018-08-12T05:20:53.726Z,5.43
2018-08-12T05:23:04.743Z,5.60
2018-08-12T05:25:16.239Z,3.67
2018-08-12T05:27:27.384Z,3.27
2018-08-12T05:29:38.429Z,3.20
2018-08-12T05:31:49.754Z,3.47
2018-08-12T05:34:00.935Z,3.50
2018-08-12T05:36:12.458Z,2.90
2018-08-12T05:38:23.546Z,3.20
2018-08-12T05:40:34.673Z,3.10
2018-08-12T05:42:46.091Z,3.47
2018-08-12T05:44:57.274Z,4.10
2018-08-12T05:47:08.521Z,3.50
2018-08-12T05:49:19.584Z,4.10
2018-08-12T05:51:31.347Z,3.87
2018-08-12T05:53:46.325Z,3.87
2018-08-12T05:55:57.771Z,3.53
2018-08-12T05:58:09.008Z,4.77
2018-08-12T06:00:20.256Z,3.60
2018-08-12T06:02:31.287Z,3.83
2018-08-12T06:04:42.821Z,3.90
2018-08-12T06:06:54.422Z,3.40
2018-08-12T06:09:05.786Z,4.10
2018-08-12T06:11:16.918Z,4.73
2018-08-12T06:13:28.336Z,4.00
2018-08-12T06:15:39.619Z,4.20
2018-08-12T06:17:50.895Z,3.90
2018-08-12T06:20:02.211Z,4.77
2018-08-12T06:22:13.504Z,4.23
2018-08-12T06:24:24.633Z,3.57
2018-08-12T06:26:35.624Z,4.77
2018-08-12T06:28:46.768Z,4.50
2018-08-12T06:30:57.999Z,5.60
2018-08-12T06:33:09.178Z,4.50
2018-08-12T06:35:20.122Z,5.07
2018-08-12T06:37:31.457Z,4.80
2018-08-12T06:39:42.853Z,4.50
2018-08-12T06:41:54.095Z,4.50
2018-08-12T06:44:05.556Z,4.30
2018-08-12T06:46:16.712Z,4.40
2018-08-12T06:48:28.054Z,4.90
2018-08-12T06:50:39.175Z,4.70
2018-08-12T06:52:51.899Z,4.50
2018-08-12T06:55:03.182Z,4.83
2018-08-12T06:57:14.391Z,4.43
2018-08-12T06:59:25.498Z,4.20
2018-08-12T07:01:36.783Z,5.27
2018-08-12T07:03:47.898Z,4.60
2018-08-12T07:05:59.008Z,4.10
2018-08-12T07:08:10.583Z,5.10
2018-08-12T07:10:21.898Z,4.50
2018-08-12T07:12:33.166Z,4.30
2018-08-12T07:14:44.496Z,4.53
2018-08-12T07:16:56.066Z,4.67
2018-08-12T07:19:07.142Z,4.30
2018-08-12T07:21:18.269Z,4.50
2018-08-12T07:26:15.355Z,4.20
2018-08-12T07:28:26.590Z,5.30
2018-08-12T07:30:37.595Z,4.93
2018-08-12T07:32:48.869Z,4.73
2018-08-12T07:35:00.188Z,4.80
2018-08-12T07:37:11.470Z,4.60
2018-08-12T07:39:22.754Z,5.60
2018-08-12T07:41:33.791Z,4.87
2018-08-12T07:43:44.925Z,4.57
2018-08-12T07:45:56.153Z,4.87
2018-08-12T07:48:07.390Z,4.67
2018-08-12T07:50:18.634Z,4.67
2018-08-12T07:52:29.646Z,4.93
2018-08-12T07:54:41.057Z,5.20
2018-08-12T07:56:52.134Z,5.87
2018-08-12T07:59:03.277Z,4.97
2018-08-12T08:01:14.473Z,4.37
2018-08-12T08:03:25.669Z,4.77
2018-08-12T08:05:36.900Z,4.60
2018-08-12T08:07:48.209Z,4.70
2018-08-12T08:09:59.495Z,5.27
2018-08-12T08:12:10.739Z,5.47
2018-08-12T08:14:21.949Z,4.80
2018-08-12T08:16:33.311Z,4.60
2018-08-12T08:18:44.582Z,4.97
2018-08-12T08:20:55.778Z,5.10
2018-08-12T08:23:06.954Z,5.13
2018-08-12T08:25:18.342Z,4.17
2018-08-12T08:27:29.568Z,4.70
2018-08-12T08:29:41.040Z,5.20
2018-08-12T08:31:52.280Z,3.47
2018-08-12T08:34:03.681Z,3.60
2018-08-12T08:36:14.892Z,3.50
2018-08-12T08:38:26.520Z,2.97
2018-08-12T08:40:37.848Z,3.87
2018-08-12T08:42:49.365Z,3.67
2018-08-12T08:45:00.675Z,3.47
2018-08-12T08:47:11.646Z,3.50
2018-08-12T08:49:22.684Z,3.73
2018-08-12T08:51:34.125Z,3.67
2018-08-12T08:53:45.476Z,3.37
2018-08-12T08:55:56.786Z,4.63
2018-08-12T08:58:08.397Z,3.90
2018-08-12T09:00:20.043Z,3.90
2018-08-12T09:02:31.199Z,3.93
2018-08-12T09:04:42.528Z,3.87
2018-08-12T09:06:53.662Z,4.10
2018-08-12T09:09:05.287Z,4.47
2018-08-12T09:11:16.799Z,4.43
2018-08-12T09:13:29.024Z,4.47
2018-08-12T09:15:40.213Z,4.60
2018-08-12T09:17:51.753Z,4.27
2018-08-12T09:22:44.352Z,4.20
2018-08-12T09:24:55.430Z,4.30
2018-08-12T09:27:07.558Z,4.63
2018-08-12T09:29:18.624Z,5.13
2018-08-12T09:31:29.645Z,4.77
2018-08-12T09:33:40.785Z,4.97
2018-08-12T09:35:52.250Z,4.87
2018-08-12T09:38:02.948Z,4.30
2018-08-12T09:40:16.104Z,5.20
2018-08-12T09:42:27.318Z,3.80
2018-08-12T09:44:38.520Z,4.37
2018-08-12T09:46:49.573Z,4.30
2018-08-12T09:49:00.943Z,4.23
2018-08-12T09:51:12.235Z,4.67
2018-08-12T09:53:23.749Z,4.80
2018-08-12T09:55:34.992Z,4.10
2018-08-12T09:57:46.097Z,3.60
2018-08-12T09:59:57.179Z,3.93
2018-08-12T10:02:08.132Z,3.80
2018-08-12T10:04:19.354Z,4.27
2018-08-12T10:06:30.708Z,4.30
2018-08-12T10:08:43.055Z,3.70
2018-08-12T10:10:54.332Z,3.70
2018-08-12T10:13:05.505Z,4.13
2018-08-12T10:15:17.277Z,3.57
2018-08-12T10:17:28.505Z,3.50
2018-08-12T10:19:39.987Z,4.13
2018-08-12T10:21:51.591Z,3.77
2018-08-12T10:24:02.901Z,4.47
2018-08-12T10:26:14.303Z,3.90
2018-08-12T10:28:25.639Z,3.70
2018-08-12T10:30:37.014Z,3.93
2018-08-12T10:32:48.368Z,4.50
2018-08-12T10:34:59.519Z,3.63
2018-08-12T10:37:10.528Z,4.43
2018-08-12T10:39:21.757Z,4.00
2018-08-12T10:41:32.890Z,3.83
2018-08-12T10:43:43.823Z,4.00
2018-08-12T10:45:55.205Z,3.80
2018-08-12T10:48:06.598Z,4.23
2018-08-12T10:50:18.747Z,4.20
2018-08-12T10:52:30.014Z,4.60
2018-08-12T10:54:41.024Z,4.43
2018-08-12T10:56:52.482Z,4.60
2018-08-12T10:59:03.621Z,3.73
2018-08-12T11:01:15.406Z,3.90
2018-08-12T11:03:28.060Z,4.67
2018-08-12T11:05:39.012Z,3.73
2018-08-12T11:07:53.121Z,3.90
2018-08-12T11:10:04.481Z,3.20
2018-08-12T11:12:16.017Z,3.60
2018-08-12T11:14:27.103Z,3.10
2018-08-12T11:16:38.055Z,3.30
2018-08-12T11:18:49.491Z,3.17
2018-08-12T11:21:00.622Z,2.80
2018-08-12T11:23:11.639Z,3.17
2018-08-12T11:25:23.006Z,3.70
2018-08-12T11:27:34.175Z,3.10
2018-08-12T11:29:45.583Z,3.20
2018-08-12T11:31:56.746Z,3.53
2018-08-12T11:34:07.861Z,3.20
2018-08-12T11:36:19.377Z,3.30
2018-08-12T11:38:30.632Z,3.10
2018-08-12T11:40:42.123Z,4.23
2018-08-12T11:42:53.041Z,3.47
2018-08-12T11:45:04.247Z,3.30
2018-08-12T11:47:15.580Z,3.57
2018-08-12T11:49:26.733Z,4.40
2018-08-12T11:51:37.951Z,4.77
2018-08-12T11:53:49.199Z,3.90
2018-08-12T11:56:00.174Z,3.80
2018-08-12T11:58:11.515Z,4.40
2018-08-12T12:00:23.341Z,3.90
2018-08-12T12:02:34.801Z,4.23
2018-08-12T12:04:46.176Z,3.97
2018-08-12T12:06:57.345Z,3.10
2018-08-12T12:09:08.345Z,3.40
2018-08-12T12:11:19.929Z,3.70
2018-08-12T12:13:30.969Z,4.00
2018-08-12T12:15:42.061Z,3.97
2018-08-12T12:17:53.566Z,3.80
2018-08-12T12:20:04.926Z,3.30
2018-08-12T12:22:16.160Z,3.30
2018-08-12T12:24:27.428Z,3.37
2018-08-12T12:26:38.579Z,2.80
2018-08-12T12:28:49.995Z,4.40
2018-08-12T12:31:01.148Z,4.30
2018-08-12T12:33:12.096Z,5.27
2018-08-12T12:35:23.407Z,4.37
2018-08-12T12:37:34.848Z,3.77
2018-08-12T12:39:46.002Z,5.37
2018-08-12T12:41:57.377Z,5.10
2018-08-12T12:44:08.705Z,5.00
2018-08-12T12:46:19.830Z,5.37
2018-08-12T12:48:31.153Z,5.20
2018-08-12T12:50:42.521Z,5.73
2018-08-12T12:52:54.389Z,5.57
2018-08-12T12:55:05.814Z,6.47
2018-08-12T12:57:16.855Z,7.40
2018-08-12T12:59:28.005Z,7.33
2018-08-12T13:01:39.330Z,6.80
2018-08-12T13:03:51.029Z,7.50
2018-08-12T13:06:02.152Z,7.73
2018-08-12T13:08:13.488Z,7.67
2018-08-12T13:10:24.744Z,8.60
2018-08-12T13:12:35.871Z,8.30
2018-08-12T13:14:47.146Z,8.23
2018-08-12T13:16:58.237Z,8.23
2018-08-12T13:19:09.267Z,8.87
2018-08-12T13:21:20.583Z,11.00
2018-08-12T13:23:31.910Z,30.77
2018-08-12T13:25:43.289Z,32.20
2018-08-12T13:27:54.616Z,54.63
2018-08-12T13:30:05.794Z,27.50
2018-08-12T13:32:16.644Z,32.88
2018-08-12T13:34:28.256Z,28.23
2018-08-12T13:36:39.419Z,29.73
2018-08-12T13:38:50.801Z,28.87
2018-08-12T13:41:02.330Z,29.20
2018-08-12T13:43:13.529Z,29.43
2018-08-12T13:45:24.679Z,27.53
2018-08-12T13:47:35.636Z,28.80
2018-08-12T13:49:46.744Z,27.90
2018-08-12T13:51:58.051Z,27.80
2018-08-12T13:54:08.992Z,28.03
2018-08-12T13:56:21.426Z,25.83
2018-08-12T13:58:32.696Z,25.23
2018-08-12T14:00:44.125Z,24.90
2018-08-12T14:02:55.513Z,25.93
2018-08-12T14:05:06.681Z,26.10
2018-08-12T14:07:17.995Z,42.20
2018-08-12T14:09:29.315Z,34.07
2018-08-12T14:11:40.993Z,30.53
2018-08-12T14:13:52.083Z,30.10
2018-08-12T14:16:03.296Z,29.80
2018-08-12T14:18:14.332Z,26.27
2018-08-12T14:20:25.590Z,24.63
2018-08-12T14:22:36.746Z,25.80
2018-08-12T14:24:47.880Z,27.33
2018-08-12T14:26:58.982Z,25.67
2018-08-12T14:29:10.233Z,24.80
2018-08-12T14:31:21.708Z,24.47
2018-08-12T14:33:33.973Z,24.67
2018-08-12T14:35:45.492Z,24.13
2018-08-12T14:37:56.858Z,24.53
2018-08-12T14:40:08.173Z,24.73
2018-08-12T14:42:19.523Z,21.50
2018-08-12T14:44:30.708Z,21.80
2018-08-12T14:46:41.888Z,22.27
2018-08-12T14:48:52.969Z,19.93
2018-08-12T14:51:04.183Z,20.10
2018-08-12T14:53:16.485Z,19.77
2018-08-12T14:55:27.768Z,19.93
2018-08-12T14:57:39.070Z,17.37
2018-08-12T14:59:50.343Z,18.57
2018-08-12T15:02:01.871Z,20.43
2018-08-12T15:04:12.962Z,23.07
2018-08-12T15:06:24.668Z,20.40
2018-08-12T15:08:35.805Z,22.03
2018-08-12T15:10:47.116Z,23.43
2018-08-12T15:12:58.606Z,22.83
2018-08-12T15:15:10.328Z,22.10
2018-08-12T15:17:21.595Z,22.30
2018-08-12T15:19:36.077Z,22.23
2018-08-12T15:21:47.321Z,22.47
2018-08-12T15:23:58.594Z,20.67
2018-08-12T15:26:09.940Z,22.37
2018-08-12T15:28:21.298Z,22.80
2018-08-12T15:30:37.123Z,22.63
2018-08-12T15:32:48.622Z,20.27
2018-08-12T15:35:00.107Z,19.97
2018-08-12T15:37:11.192Z,20.83
2018-08-12T15:39:22.490Z,19.90
2018-08-12T15:41:33.679Z,20.10
2018-08-12T15:43:45.139Z,20.77
2018-08-12T15:45:56.396Z,20.40
2018-08-12T15:48:07.732Z,19.00
2018-08-12T15:50:19.132Z,19.90
2018-08-12T15:52:30.604Z,20.13
2018-08-12T15:54:41.903Z,20.10
2018-08-12T15:56:54.472Z,19.10
2018-08-12T15:59:06.316Z,18.40
2018-08-12T16:01:17.813Z,19.27
2018-08-12T16:03:32.905Z,18.93
2018-08-12T16:05:44.401Z,20.30
2018-08-12T16:07:56.409Z,17.93
2018-08-12T16:10:07.470Z,18.50
2018-08-12T16:12:19.048Z,17.80
2018-08-12T16:14:30.472Z,19.17
2018-08-12T16:16:41.503Z,18.80
2018-08-12T16:18:54.164Z,19.43
2018-08-12T16:21:06.653Z,17.60
2018-08-12T16:23:18.033Z,19.20
2018-08-12T16:25:33.423Z,19.07
2018-08-12T16:27:44.885Z,16.30
2018-08-12T16:29:56.109Z,16.43
2018-08-12T16:32:07.385Z,17.90
2018-08-12T16:34:18.612Z,17.73
2018-08-12T16:36:30.231Z,18.00
2018-08-12T16:38:41.482Z,20.70
2018-08-12T16:40:53.001Z,19.03
2018-08-12T16:43:04.327Z,21.10
2018-08-12T16:45:16.266Z,21.13
2018-08-12T16:47:27.530Z,20.50
2018-08-12T16:49:40.205Z,21.40
2018-08-12T16:51:52.199Z,22.77
2018-08-12T16:54:06.549Z,21.90
2018-08-12T16:56:17.869Z,21.67
2018-08-12T16:58:28.841Z,18.60
2018-08-12T17:00:40.227Z,18.03
2018-08-12T17:02:51.389Z,14.30
2018-08-12T17:05:02.656Z,15.77
2018-08-12T17:07:13.992Z,16.27
2018-08-12T17:09:25.953Z,16.90
2018-08-12T17:11:37.356Z,16.30
2018-08-12T17:13:48.716Z,16.10
2018-08-12T17:15:59.877Z,10.97
2018-08-12T17:18:11.059Z,9.20
2018-08-12T17:20:23.120Z,9.03
2018-08-12T17:22:34.472Z,10.13
2018-08-12T17:24:45.551Z,8.07
2018-08-12T17:26:57.052Z,9.07
2018-08-12T17:29:07.991Z,8.33
2018-08-12T17:31:20.623Z,11.90
2018-08-12T17:33:31.627Z,8.67
2018-08-12T17:35:42.970Z,10.30
2018-08-12T17:37:54.465Z,9.03
2018-08-12T17:40:05.810Z,12.50
2018-08-12T17:42:16.910Z,8.70
2018-08-12T17:44:28.307Z,8.13
2018-08-12T17:46:39.616Z,9.80
2018-08-12T17:48:51.074Z,7.43
2018-08-12T17:51:02.483Z,9.50
2018-08-12T17:53:13.686Z,7.30
2018-08-12T17:55:25.655Z,8.00
2018-08-12T17:57:37.587Z,10.23
2018-08-12T17:59:48.959Z,9.43
2018-08-12T18:02:00.451Z,9.83
2018-08-12T18:04:11.743Z,9.83
2018-08-12T18:06:23.100Z,9.67
2018-08-12T18:08:34.277Z,12.00
2018-08-12T18:10:45.847Z,12.97
2018-08-12T18:12:56.967Z,9.80
2018-08-12T18:15:08.030Z,9.20
2018-08-12T18:17:19.428Z,9.00
2018-08-12T18:19:30.653Z,10.60
2018-08-12T18:21:41.951Z,12.17
2018-08-12T18:23:53.377Z,11.50
2018-08-12T18:26:04.619Z,12.93
2018-08-12T18:28:15.871Z,14.20
2018-08-12T18:30:27.209Z,14.93
2018-08-12T18:32:38.375Z,14.53
2018-08-12T18:34:49.517Z,13.37
2018-08-12T18:37:01.027Z,12.87
2018-08-12T18:39:13.545Z,11.20
2018-08-12T18:41:24.899Z,12.80
2018-08-12T18:43:36.296Z,15.03
2018-08-12T18:45:47.336Z,16.70
2018-08-12T18:47:58.681Z,14.90
2018-08-12T18:50:09.918Z,11.60
2018-08-12T18:52:21.211Z,10.20
2018-08-12T18:54:32.470Z,9.03
2018-08-12T18:56:43.626Z,9.47
2018-08-12T18:58:54.909Z,8.73
2018-08-12T19:01:06.064Z,7.70
2018-08-12T19:03:17.515Z,6.83
2018-08-12T19:05:28.785Z,5.67
2018-08-12T19:07:40.089Z,7.23
2018-08-12T19:09:51.321Z,5.97
2018-08-12T19:12:03.317Z,5.13
2018-08-12T19:14:14.542Z,5.63
2018-08-12T19:16:26.116Z,5.07
2018-08-12T19:18:37.167Z,5.60
2018-08-12T19:20:48.453Z,6.07
2018-08-12T19:22:59.549Z,5.70
2018-08-12T19:25:11.074Z,6.03
2018-08-12T19:27:22.387Z,6.20
2018-08-12T19:29:33.657Z,6.10
2018-08-12T19:31:45.021Z,9.00
2018-08-12T19:33:56.417Z,10.20
2018-08-12T19:36:07.462Z,9.93
2018-08-12T19:38:18.647Z,10.50
2018-08-12T19:40:29.842Z,13.87
2018-08-12T19:42:41.404Z,14.40
2018-08-12T19:44:52.537Z,13.23
2018-08-12T19:47:03.910Z,14.67
2018-08-12T19:49:15.202Z,12.17
2018-08-12T19:51:26.433Z,9.30
2018-08-12T19:53:37.668Z,8.43
2018-08-12T19:55:49.502Z,9.00
2018-08-12T19:58:01.900Z,10.27
2018-08-12T20:00:13.617Z,8.60
2018-08-12T20:02:24.828Z,10.70
2018-08-12T20:04:36.177Z,7.87
2018-08-12T20:06:47.404Z,10.13
2018-08-12T20:08:58.930Z,11.20
2018-08-12T20:11:11.030Z,11.33
2018-08-12T20:13:22.222Z,9.53
2018-08-12T20:15:33.625Z,9.10
2018-08-12T20:17:44.645Z,6.80
2018-08-12T20:19:55.805Z,5.60
2018-08-12T20:22:07.327Z,5.20
2018-08-12T20:24:18.559Z,6.90
2018-08-12T20:26:29.637Z,6.70
2018-08-12T20:28:41.021Z,5.60
2018-08-12T20:30:51.992Z,5.57
2018-08-12T20:33:03.487Z,5.63
2018-08-12T20:35:14.812Z,5.50
2018-08-12T20:37:25.966Z,5.60
2018-08-12T20:39:37.326Z,5.23
2018-08-12T20:41:48.649Z,9.97
2018-08-12T20:44:00.120Z,9.23
2018-08-12T20:46:11.702Z,9.00
2018-08-12T20:48:23.044Z,8.67
2018-08-12T20:50:34.506Z,8.37
2018-08-12T20:52:45.705Z,9.80
2018-08-12T20:54:57.023Z,7.93
2018-08-12T20:57:09.291Z,8.67
2018-08-12T20:59:20.511Z,5.83
2018-08-12T21:01:32.078Z,5.57
2018-08-12T21:03:44.041Z,5.70
2018-08-12T21:05:55.263Z,5.90
2018-08-12T21:08:06.777Z,5.90
2018-08-12T21:10:17.881Z,9.40
2018-08-12T21:12:29.292Z,7.07
2018-08-12T21:14:41.706Z,8.50
2018-08-12T21:16:52.898Z,7.77
2018-08-12T21:19:04.006Z,7.57
2018-08-12T21:21:15.530Z,4.40
2018-08-12T21:23:27.936Z,8.60
2018-08-12T21:25:38.967Z,7.87
2018-08-12T21:27:50.700Z,8.90
2018-08-12T21:30:02.358Z,8.67
2018-08-12T21:32:14.385Z,7.23
2018-08-12T21:34:26.096Z,8.17
2018-08-12T21:36:38.332Z,7.20
2018-08-12T21:38:50.037Z,7.87
2018-08-12T21:41:01.521Z,9.67
2018-08-12T21:43:13.243Z,5.87
2018-08-12T21:45:25.030Z,8.53
2018-08-12T21:47:37.369Z,5.73
2018-08-12T21:49:49.305Z,8.27
2018-08-12T21:52:01.072Z,6.83
2018-08-12T21:54:12.782Z,5.90
2018-08-12T21:56:24.382Z,6.50
2018-08-12T21:58:41.192Z,5.17
2018-08-12T22:00:54.039Z,6.33
2018-08-12T22:03:05.887Z,6.07
2018-08-12T22:05:17.708Z,5.50
2018-08-12T22:07:29.314Z,5.30
2018-08-12T22:09:40.926Z,5.20
2018-08-12T22:11:53.091Z,5.87
2018-08-12T22:14:05.350Z,5.50
2018-08-12T22:16:18.044Z,6.23
2018-08-12T22:18:29.442Z,6.20
2018-08-12T22:20:41.424Z,5.00
2018-08-12T22:22:53.418Z,5.77
2018-08-12T22:25:06.165Z,6.50
2018-08-12T22:27:17.824Z,5.77
2018-08-12T22:29:29.622Z,7.40
2018-08-12T22:31:40.920Z,8.50
2018-08-12T22:33:52.666Z,9.27
2018-08-12T22:36:04.287Z,10.60
2018-08-12T22:38:15.581Z,11.20
2018-08-12T22:40:27.982Z,11.27
2018-08-12T22:42:39.998Z,11.30
2018-08-12T22:44:51.628Z,12.80
2018-08-12T22:47:03.720Z,13.67
2018-08-12T22:49:15.569Z,13.93
2018-08-12T22:51:26.966Z,13.77
2018-08-12T22:53:38.096Z,14.00
2018-08-12T22:55:49.442Z,15.00
2018-08-12T22:58:00.728Z,13.83
2018-08-12T23:00:13.540Z,14.37
2018-08-12T23:02:25.386Z,14.97
2018-08-12T23:04:37.241Z,15.17
2018-08-12T23:06:49.231Z,14.93
2018-08-12T23:09:00.780Z,22.20
2018-08-12T23:11:14.033Z,210.07
2018-08-12T23:13:26.092Z,239.20
2018-08-12T23:15:38.098Z,421.03
2018-08-12T23:17:50.553Z,98.58
2018-08-12T23:20:02.412Z,107.80
2018-08-12T23:22:14.013Z,102.33
2018-08-12T23:24:25.885Z,94.13
2018-08-12T23:26:37.487Z,89.47
2018-08-12T23:28:49.159Z,85.10
2018-08-12T23:31:02.301Z,84.27
2018-08-12T23:33:14.436Z,79.37
2018-08-12T23:35:26.722Z,75.37
2018-08-12T23:37:38.729Z,69.97
2018-08-12T23:39:50.420Z,63.17
2018-08-12T23:42:02.876Z,51.03
2018-08-12T23:44:16.496Z,51.47
2018-08-12T23:46:28.082Z,47.43
2018-08-12T23:48:40.828Z,40.80
2018-08-12T23:50:53.701Z,36.67
2018-08-12T23:53:06.366Z,36.47
2018-08-12T23:55:18.671Z,34.73
2018-08-12T23:57:30.951Z,28.03
2018-08-12T23:59:42.692Z,26.37
